sensor_id;sensor_type;location;lat;lon;timestamp;temperature;humidity
19110;DHT22;9687;50.836;12.060;2022-12-18T00:01:15;-2.90;65.60
19110;DHT22;9687;50.836;12.060;2022-12-18T00:06:11;-2.80;65.40
19110;DHT22;9687;50.836;12.060;2022-12-18T00:08:40;-2.90;67.70
19110;DHT22;9687;50.836;12.060;2022-12-18T00:11:12;-2.90;65.10
19110;DHT22;9687;50.836;12.060;2022-12-18T00:13:41;-2.90;65.20
19110;DHT22;9687;50.836;12.060;2022-12-18T00:16:12;-2.90;65.10
19110;DHT22;9687;50.836;12.060;2022-12-18T00:18:40;-3.00;64.90
19110;DHT22;9687;50.836;12.060;2022-12-18T00:21:10;-2.90;64.80
19110;DHT22;9687;50.836;12.060;2022-12-18T00:23:38;-2.90;64.80
19110;DHT22;9687;50.836;12.060;2022-12-18T00:26:10;-2.90;64.60
19110;DHT22;9687;50.836;12.060;2022-12-18T00:28:46;-2.90;64.70
19110;DHT22;9687;50.836;12.060;2022-12-18T00:31:24;-3.00;64.70
19110;DHT22;9687;50.836;12.060;2022-12-18T00:33:53;-3.10;64.80
19110;DHT22;9687;50.836;12.060;2022-12-18T00:39:03;-3.20;64.50
19110;DHT22;9687;50.836;12.060;2022-12-18T00:41:33;-3.30;64.70
19110;DHT22;9687;50.836;12.060;2022-12-18T00:44:19;-3.40;65.70
19110;DHT22;9687;50.836;12.060;2022-12-18T00:46:48;-3.40;65.20
19110;DHT22;9687;50.836;12.060;2022-12-18T00:49:17;-3.50;65.20
19110;DHT22;9687;50.836;12.060;2022-12-18T00:51:47;-3.40;65.30
19110;DHT22;9687;50.836;12.060;2022-12-18T00:54:16;-3.50;65.20
19110;DHT22;9687;50.836;12.060;2022-12-18T00:56:46;-3.50;65.10
19110;DHT22;9687;50.836;12.060;2022-12-18T00:59:13;-3.50;65.20
19110;DHT22;9687;50.836;12.060;2022-12-18T01:01:41;-3.50;65.20
19110;DHT22;9687;50.836;12.060;2022-12-18T01:04:09;-3.50;65.10
19110;DHT22;9687;50.836;12.060;2022-12-18T01:09:05;-3.60;64.70
19110;DHT22;9687;50.836;12.060;2022-12-18T01:11:35;-3.70;64.60
19110;DHT22;9687;50.836;12.060;2022-12-18T01:14:05;-3.30;67.50
19110;DHT22;9687;50.836;12.060;2022-12-18T01:16:33;-3.90;65.10
19110;DHT22;9687;50.836;12.060;2022-12-18T01:19:02;-3.90;64.90
19110;DHT22;9687;50.836;12.060;2022-12-18T01:21:30;-3.90;65.00
19110;DHT22;9687;50.836;12.060;2022-12-18T01:23:59;-4.00;64.90
19110;DHT22;9687;50.836;12.060;2022-12-18T01:26:31;-4.00;64.90
19110;DHT22;9687;50.836;12.060;2022-12-18T01:28:58;-4.00;64.70
19110;DHT22;9687;50.836;12.060;2022-12-18T01:31:30;-4.00;64.70
19110;DHT22;9687;50.836;12.060;2022-12-18T01:34:01;-4.10;65.00
19110;DHT22;9687;50.836;12.060;2022-12-18T01:36:30;-4.10;65.10
19110;DHT22;9687;50.836;12.060;2022-12-18T01:38:59;-4.20;65.30
19110;DHT22;9687;50.836;12.060;2022-12-18T01:41:29;-4.10;65.60
19110;DHT22;9687;50.836;12.060;2022-12-18T01:44:54;-4.10;65.50
19110;DHT22;9687;50.836;12.060;2022-12-18T01:47:26;-4.20;65.50
19110;DHT22;9687;50.836;12.060;2022-12-18T01:49:55;-4.30;66.20
19110;DHT22;9687;50.836;12.060;2022-12-18T01:52:25;-4.40;65.80
19110;DHT22;9687;50.836;12.060;2022-12-18T01:54:54;-4.40;65.90
19110;DHT22;9687;50.836;12.060;2022-12-18T01:57:23;-4.50;66.00
19110;DHT22;9687;50.836;12.060;2022-12-18T01:59:53;-4.50;66.00
19110;DHT22;9687;50.836;12.060;2022-12-18T02:02:26;-4.60;66.00
19110;DHT22;9687;50.836;12.060;2022-12-18T02:04:55;-4.60;66.00
19110;DHT22;9687;50.836;12.060;2022-12-18T02:07:28;-4.50;66.00
19110;DHT22;9687;50.836;12.060;2022-12-18T02:10:02;-4.60;66.00
19110;DHT22;9687;50.836;12.060;2022-12-18T02:12:37;-4.60;66.10
19110;DHT22;9687;50.836;12.060;2022-12-18T02:15:13;-4.60;66.40
19110;DHT22;9687;50.836;12.060;2022-12-18T02:17:47;-4.50;66.50
19110;DHT22;9687;50.836;12.060;2022-12-18T02:20:20;-4.50;66.30
19110;DHT22;9687;50.836;12.060;2022-12-18T04:23:06;-5.30;66.10
19110;DHT22;9687;50.836;12.060;2022-12-18T04:25:33;-5.30;66.80
19110;DHT22;9687;50.836;12.060;2022-12-18T04:28:01;-5.40;68.30
19110;DHT22;9687;50.836;12.060;2022-12-18T04:30:29;-5.50;66.10
19110;DHT22;9687;50.836;12.060;2022-12-18T04:32:56;-5.50;67.40
19110;DHT22;9687;50.836;12.060;2022-12-18T04:35:24;-5.50;66.70
19110;DHT22;9687;50.836;12.060;2022-12-18T04:40:23;-5.60;66.80
19110;DHT22;9687;50.836;12.060;2022-12-18T04:42:50;-5.40;67.10
19110;DHT22;9687;50.836;12.060;2022-12-18T04:45:18;-5.40;67.00
19110;DHT22;9687;50.836;12.060;2022-12-18T04:47:46;-5.30;66.80
19110;DHT22;9687;50.836;12.060;2022-12-18T04:50:13;-5.20;66.40
19110;DHT22;9687;50.836;12.060;2022-12-18T04:52:41;-5.10;66.30
19110;DHT22;9687;50.836;12.060;2022-12-18T04:55:09;-5.10;66.10
19110;DHT22;9687;50.836;12.060;2022-12-18T04:57:39;-5.00;65.90
19110;DHT22;9687;50.836;12.060;2022-12-18T05:00:07;-5.00;65.60
19110;DHT22;9687;50.836;12.060;2022-12-18T05:02:35;-5.10;65.20
19110;DHT22;9687;50.836;12.060;2022-12-18T05:05:03;-5.10;65.50
19110;DHT22;9687;50.836;12.060;2022-12-18T05:07:31;-5.10;65.80
19110;DHT22;9687;50.836;12.060;2022-12-18T05:09:59;-5.10;65.10
19110;DHT22;9687;50.836;12.060;2022-12-18T05:12:31;-5.10;65.00
19110;DHT22;9687;50.836;12.060;2022-12-18T05:15:02;-5.40;64.40
19110;DHT22;9687;50.836;12.060;2022-12-18T05:17:30;-5.10;65.30
19110;DHT22;9687;50.836;12.060;2022-12-18T05:20:00;-5.30;64.70
19110;DHT22;9687;50.836;12.060;2022-12-18T05:22:28;-5.30;65.30
19110;DHT22;9687;50.836;12.060;2022-12-18T05:24:56;-5.30;65.00
19110;DHT22;9687;50.836;12.060;2022-12-18T05:27:25;-5.40;65.70
19110;DHT22;9687;50.836;12.060;2022-12-18T05:34:50;-5.70;65.90
19110;DHT22;9687;50.836;12.060;2022-12-18T05:37:17;-5.70;65.80
19110;DHT22;9687;50.836;12.060;2022-12-18T05:39:47;-5.70;66.00
19110;DHT22;9687;50.836;12.060;2022-12-18T05:42:15;-5.70;65.70
19110;DHT22;9687;50.836;12.060;2022-12-18T05:44:43;-5.70;66.50
19110;DHT22;9687;50.836;12.060;2022-12-18T05:47:12;-5.70;66.50
19110;DHT22;9687;50.836;12.060;2022-12-18T05:49:41;-5.80;66.40
19110;DHT22;9687;50.836;12.060;2022-12-18T05:52:09;-5.80;66.40
19110;DHT22;9687;50.836;12.060;2022-12-18T05:54:36;-5.80;66.50
19110;DHT22;9687;50.836;12.060;2022-12-18T05:57:03;-5.70;66.80
19110;DHT22;9687;50.836;12.060;2022-12-18T05:59:31;-5.70;66.80
19110;DHT22;9687;50.836;12.060;2022-12-18T06:01:59;-5.70;66.70
19110;DHT22;9687;50.836;12.060;2022-12-18T06:04:27;-5.70;68.00
19110;DHT22;9687;50.836;12.060;2022-12-18T06:06:56;-5.80;67.00
19110;DHT22;9687;50.836;12.060;2022-12-18T06:09:24;-5.80;67.00
19110;DHT22;9687;50.836;12.060;2022-12-18T06:11:52;-5.90;67.10
19110;DHT22;9687;50.836;12.060;2022-12-18T06:14:19;-6.00;70.30
19110;DHT22;9687;50.836;12.060;2022-12-18T06:16:46;-6.00;67.70
19110;DHT22;9687;50.836;12.060;2022-12-18T06:19:15;-6.00;67.00
19110;DHT22;9687;50.836;12.060;2022-12-18T06:21:43;-5.90;67.10
19110;DHT22;9687;50.836;12.060;2022-12-18T06:24:12;-5.90;66.90
19110;DHT22;9687;50.836;12.060;2022-12-18T06:26:40;-5.90;66.90
19110;DHT22;9687;50.836;12.060;2022-12-18T06:29:07;-5.90;66.90
19110;DHT22;9687;50.836;12.060;2022-12-18T06:31:35;-6.00;67.10
19110;DHT22;9687;50.836;12.060;2022-12-18T06:34:04;-6.00;67.20
19110;DHT22;9687;50.836;12.060;2022-12-18T06:36:32;-6.00;67.90
19110;DHT22;9687;50.836;12.060;2022-12-18T06:38:59;-6.10;67.10
19110;DHT22;9687;50.836;12.060;2022-12-18T06:41:28;-6.00;67.90
19110;DHT22;9687;50.836;12.060;2022-12-18T06:43:57;-6.10;67.80
19110;DHT22;9687;50.836;12.060;2022-12-18T06:46:25;-6.10;67.50
19110;DHT22;9687;50.836;12.060;2022-12-18T06:48:52;-6.10;68.10
19110;DHT22;9687;50.836;12.060;2022-12-18T06:51:20;-6.10;67.10
19110;DHT22;9687;50.836;12.060;2022-12-18T06:53:48;-6.10;66.70
19110;DHT22;9687;50.836;12.060;2022-12-18T06:56:16;-6.10;67.40
19110;DHT22;9687;50.836;12.060;2022-12-18T06:58:45;-6.10;67.00
19110;DHT22;9687;50.836;12.060;2022-12-18T07:01:13;-6.10;67.70
19110;DHT22;9687;50.836;12.060;2022-12-18T07:03:42;-6.10;67.70
19110;DHT22;9687;50.836;12.060;2022-12-18T07:06:14;-6.20;67.10
19110;DHT22;9687;50.836;12.060;2022-12-18T07:08:42;-6.20;67.80
19110;DHT22;9687;50.836;12.060;2022-12-18T07:11:09;-6.10;67.50
19110;DHT22;9687;50.836;12.060;2022-12-18T07:13:37;-6.20;68.00
19110;DHT22;9687;50.836;12.060;2022-12-18T07:16:08;-6.00;67.40
19110;DHT22;9687;50.836;12.060;2022-12-18T07:18:36;-6.00;67.20
19110;DHT22;9687;50.836;12.060;2022-12-18T07:21:05;-6.00;67.20
19110;DHT22;9687;50.836;12.060;2022-12-18T09:24:17;-1.20;63.60
19110;DHT22;9687;50.836;12.060;2022-12-18T09:26:46;-1.20;63.40
19110;DHT22;9687;50.836;12.060;2022-12-18T09:29:16;-1.10;63.60
19110;DHT22;9687;50.836;12.060;2022-12-18T09:31:51;-1.00;64.10
19110;DHT22;9687;50.836;12.060;2022-12-18T09:34:35;-0.90;63.30
19110;DHT22;9687;50.836;12.060;2022-12-18T09:37:05;-0.80;64.00
19110;DHT22;9687;50.836;12.060;2022-12-18T09:39:38;-0.60;64.00
19110;DHT22;9687;50.836;12.060;2022-12-18T09:42:05;-0.60;62.50
19110;DHT22;9687;50.836;12.060;2022-12-18T09:44:38;-0.60;62.70
19110;DHT22;9687;50.836;12.060;2022-12-18T09:47:12;-0.60;63.10
19110;DHT22;9687;50.836;12.060;2022-12-18T09:49:44;-0.40;63.90
19110;DHT22;9687;50.836;12.060;2022-12-18T09:52:16;-0.20;63.50
19110;DHT22;9687;50.836;12.060;2022-12-18T09:54:51;-0.10;63.30
19110;DHT22;9687;50.836;12.060;2022-12-18T09:57:23;0.00;63.00
19110;DHT22;9687;50.836;12.060;2022-12-18T09:59:55;0.10;63.50
19110;DHT22;9687;50.836;12.060;2022-12-18T10:02:29;0.10;63.20
19110;DHT22;9687;50.836;12.060;2022-12-18T10:05:07;0.20;63.90
19110;DHT22;9687;50.836;12.060;2022-12-18T10:07:53;0.30;61.70
19110;DHT22;9687;50.836;12.060;2022-12-18T10:11:10;0.40;62.10
19110;DHT22;9687;50.836;12.060;2022-12-18T10:13:44;0.40;62.80
19110;DHT22;9687;50.836;12.060;2022-12-18T10:16:17;0.40;64.30
19110;DHT22;9687;50.836;12.060;2022-12-18T10:19:01;0.70;62.00
19110;DHT22;9687;50.836;12.060;2022-12-18T10:21:38;0.80;62.80
19110;DHT22;9687;50.836;12.060;2022-12-18T10:43:05;1.70;60.60
19110;DHT22;9687;50.836;12.060;2022-12-18T10:45:34;1.70;61.30
19110;DHT22;9687;50.836;12.060;2022-12-18T10:48:03;1.70;61.00
19110;DHT22;9687;50.836;12.060;2022-12-18T10:50:48;1.70;61.30
19110;DHT22;9687;50.836;12.060;2022-12-18T10:53:20;1.70;60.50
19110;DHT22;9687;50.836;12.060;2022-12-18T10:55:51;1.70;61.30
19110;DHT22;9687;50.836;12.060;2022-12-18T10:58:25;1.70;60.90
19110;DHT22;9687;50.836;12.060;2022-12-18T11:01:05;1.70;61.00
19110;DHT22;9687;50.836;12.060;2022-12-18T11:03:34;1.70;61.70
19110;DHT22;9687;50.836;12.060;2022-12-18T11:06:05;1.80;61.10
19110;DHT22;9687;50.836;12.060;2022-12-18T11:08:34;1.80;61.80
19110;DHT22;9687;50.836;12.060;2022-12-18T11:11:15;2.00;62.10
19110;DHT22;9687;50.836;12.060;2022-12-18T11:14:02;2.10;61.40
19110;DHT22;9687;50.836;12.060;2022-12-18T11:16:35;2.30;61.50
19110;DHT22;9687;50.836;12.060;2022-12-18T11:19:30;2.30;62.20
19110;DHT22;9687;50.836;12.060;2022-12-18T11:21:59;2.50;61.90
19110;DHT22;9687;50.836;12.060;2022-12-18T11:24:30;2.50;61.50
19110;DHT22;9687;50.836;12.060;2022-12-18T11:27:00;2.60;61.50
19110;DHT22;9687;50.836;12.060;2022-12-18T11:29:39;2.60;61.70
19110;DHT22;9687;50.836;12.060;2022-12-18T11:32:32;2.70;60.70
19110;DHT22;9687;50.836;12.060;2022-12-18T11:35:17;2.70;61.40
19110;DHT22;9687;50.836;12.060;2022-12-18T11:37:50;2.70;61.40
19110;DHT22;9687;50.836;12.060;2022-12-18T11:40:33;2.80;61.10
19110;DHT22;9687;50.836;12.060;2022-12-18T11:43:07;2.80;61.60
19110;DHT22;9687;50.836;12.060;2022-12-18T11:45:42;2.80;60.90
19110;DHT22;9687;50.836;12.060;2022-12-18T11:48:16;2.80;60.80
19110;DHT22;9687;50.836;12.060;2022-12-18T11:50:49;2.80;61.50
19110;DHT22;9687;50.836;12.060;2022-12-18T11:53:18;2.80;61.70
19110;DHT22;9687;50.836;12.060;2022-12-18T11:55:53;2.90;61.60
19110;DHT22;9687;50.836;12.060;2022-12-18T11:58:32;2.80;61.00
19110;DHT22;9687;50.836;12.060;2022-12-18T12:01:17;2.80;61.60
19110;DHT22;9687;50.836;12.060;2022-12-18T12:06:58;2.90;61.20
19110;DHT22;9687;50.836;12.060;2022-12-18T12:09:34;2.80;61.80
19110;DHT22;9687;50.836;12.060;2022-12-18T12:12:23;2.90;61.80
19110;DHT22;9687;50.836;12.060;2022-12-18T12:15:01;2.90;61.90
19110;DHT22;9687;50.836;12.060;2022-12-18T12:17:40;2.80;61.70
19110;DHT22;9687;50.836;12.060;2022-12-18T12:20:16;2.70;61.90
19110;DHT22;9687;50.836;12.060;2022-12-18T12:22:53;2.60;62.20
19110;DHT22;9687;50.836;12.060;2022-12-18T12:25:36;2.50;62.50
19110;DHT22;9687;50.836;12.060;2022-12-18T12:28:42;2.50;63.00
19110;DHT22;9687;50.836;12.060;2022-12-18T12:31:21;2.50;63.30
19110;DHT22;9687;50.836;12.060;2022-12-18T12:34:01;2.50;63.40
19110;DHT22;9687;50.836;12.060;2022-12-18T12:36:45;2.50;63.40
19110;DHT22;9687;50.836;12.060;2022-12-18T12:39:21;2.50;63.40
19110;DHT22;9687;50.836;12.060;2022-12-18T12:41:54;2.50;63.40
19110;DHT22;9687;50.836;12.060;2022-12-18T12:44:44;2.40;63.30
19110;DHT22;9687;50.836;12.060;2022-12-18T12:47:16;2.40;63.50
19110;DHT22;9687;50.836;12.060;2022-12-18T12:49:50;2.40;63.10
19110;DHT22;9687;50.836;12.060;2022-12-18T12:52:27;2.40;63.40
19110;DHT22;9687;50.836;12.060;2022-12-18T12:54:56;2.40;64.10
19110;DHT22;9687;50.836;12.060;2022-12-18T12:57:34;2.40;64.10
19110;DHT22;9687;50.836;12.060;2022-12-18T13:00:09;2.30;64.00
19110;DHT22;9687;50.836;12.060;2022-12-18T13:02:44;2.30;64.10
19110;DHT22;9687;50.836;12.060;2022-12-18T13:05:22;2.30;64.30
19110;DHT22;9687;50.836;12.060;2022-12-18T13:07:56;2.20;64.30
19110;DHT22;9687;50.836;12.060;2022-12-18T13:10:31;2.10;63.80
19110;DHT22;9687;50.836;12.060;2022-12-18T13:13:01;2.10;64.60
19110;DHT22;9687;50.836;12.060;2022-12-18T13:15:37;2.00;64.50
19110;DHT22;9687;50.836;12.060;2022-12-18T13:18:15;2.00;64.30
19110;DHT22;9687;50.836;12.060;2022-12-18T13:20:47;1.80;64.40
19110;DHT22;9687;50.836;12.060;2022-12-18T13:23:33;1.90;65.20
19110;DHT22;9687;50.836;12.060;2022-12-18T13:26:30;1.80;65.20
19110;DHT22;9687;50.836;12.060;2022-12-18T13:29:03;1.70;65.40
19110;DHT22;9687;50.836;12.060;2022-12-18T13:34:35;1.50;65.10
19110;DHT22;9687;50.836;12.060;2022-12-18T13:43:31;1.30;65.70
19110;DHT22;9687;50.836;12.060;2022-12-18T14:46:30;0.60;69.10
19110;DHT22;9687;50.836;12.060;2022-12-18T14:49:05;0.60;69.50
19110;DHT22;9687;50.836;12.060;2022-12-18T14:51:47;0.50;70.00
19110;DHT22;9687;50.836;12.060;2022-12-18T14:54:17;0.60;70.10
19110;DHT22;9687;50.836;12.060;2022-12-18T14:57:04;0.60;69.60
19110;DHT22;9687;50.836;12.060;2022-12-18T14:59:36;0.60;70.20
19110;DHT22;9687;50.836;12.060;2022-12-18T15:02:15;0.50;70.10
19110;DHT22;9687;50.836;12.060;2022-12-18T15:04:48;0.50;69.90
19110;DHT22;9687;50.836;12.060;2022-12-18T15:07:41;0.50;70.60
19110;DHT22;9687;50.836;12.060;2022-12-18T15:10:14;0.50;69.90
19110;DHT22;9687;50.836;12.060;2022-12-18T15:12:50;0.50;70.50
19110;DHT22;9687;50.836;12.060;2022-12-18T15:15:47;0.50;70.60
19110;DHT22;9687;50.836;12.060;2022-12-18T15:18:23;0.50;70.70
19110;DHT22;9687;50.836;12.060;2022-12-18T15:21:08;0.50;70.00
19110;DHT22;9687;50.836;12.060;2022-12-18T15:23:45;0.50;70.70
19110;DHT22;9687;50.836;12.060;2022-12-18T15:26:14;0.50;70.70
19110;DHT22;9687;50.836;12.060;2022-12-18T15:28:45;0.50;70.20
19110;DHT22;9687;50.836;12.060;2022-12-18T15:31:24;0.50;71.00
19110;DHT22;9687;50.836;12.060;2022-12-18T15:34:10;0.50;71.00
19110;DHT22;9687;50.836;12.060;2022-12-18T15:36:40;0.50;71.10
19110;DHT22;9687;50.836;12.060;2022-12-18T15:39:11;0.50;71.10
19110;DHT22;9687;50.836;12.060;2022-12-18T15:41:40;0.40;71.10
19110;DHT22;9687;50.836;12.060;2022-12-18T15:44:28;0.40;70.60
19110;DHT22;9687;50.836;12.060;2022-12-18T15:46:58;0.40;71.30
19110;DHT22;9687;50.836;12.060;2022-12-18T15:49:31;0.40;71.30
19110;DHT22;9687;50.836;12.060;2022-12-18T15:52:02;0.30;71.30
19110;DHT22;9687;50.836;12.060;2022-12-18T15:54:32;0.30;71.30
19110;DHT22;9687;50.836;12.060;2022-12-18T15:57:18;0.30;70.80
19110;DHT22;9687;50.836;12.060;2022-12-18T15:59:54;0.30;70.80
19110;DHT22;9687;50.836;12.060;2022-12-18T16:02:24;0.40;71.70
19110;DHT22;9687;50.836;12.060;2022-12-18T16:04:59;0.40;71.00
19110;DHT22;9687;50.836;12.060;2022-12-18T16:07:31;0.40;71.70
19110;DHT22;9687;50.836;12.060;2022-12-18T16:10:00;0.40;71.60
19110;DHT22;9687;50.836;12.060;2022-12-18T16:12:36;0.40;71.60
19110;DHT22;9687;50.836;12.060;2022-12-18T16:15:06;0.40;71.60
19110;DHT22;9687;50.836;12.060;2022-12-18T16:17:35;0.40;70.80
19110;DHT22;9687;50.836;12.060;2022-12-18T16:20:12;0.40;71.30
19110;DHT22;9687;50.836;12.060;2022-12-18T17:21:47;0.00;70.90
19110;DHT22;9687;50.836;12.060;2022-12-18T17:24:15;0.10;70.40
19110;DHT22;9687;50.836;12.060;2022-12-18T17:29:19;0.10;70.30
19110;DHT22;9687;50.836;12.060;2022-12-18T17:31:47;0.00;70.80
19110;DHT22;9687;50.836;12.060;2022-12-18T17:34:16;0.10;70.20
19110;DHT22;9687;50.836;12.060;2022-12-18T17:36:45;0.20;70.90
19110;DHT22;9687;50.836;12.060;2022-12-18T17:39:17;0.20;70.10
19110;DHT22;9687;50.836;12.060;2022-12-18T17:41:47;0.20;70.60
19110;DHT22;9687;50.836;12.060;2022-12-18T17:44:20;0.20;70.50
19110;DHT22;9687;50.836;12.060;2022-12-18T17:46:49;0.20;70.40
19110;DHT22;9687;50.836;12.060;2022-12-18T17:49:17;0.30;69.50
19110;DHT22;9687;50.836;12.060;2022-12-18T17:51:50;0.30;70.20
19110;DHT22;9687;50.836;12.060;2022-12-18T17:54:17;0.30;69.50
19110;DHT22;9687;50.836;12.060;2022-12-18T17:56:45;0.30;70.20
19110;DHT22;9687;50.836;12.060;2022-12-18T17:59:13;0.30;70.10
19110;DHT22;9687;50.836;12.060;2022-12-18T18:01:41;0.40;70.20
19110;DHT22;9687;50.836;12.060;2022-12-18T18:04:10;0.40;70.10
19110;DHT22;9687;50.836;12.060;2022-12-18T18:06:38;0.40;69.30
19110;DHT22;9687;50.836;12.060;2022-12-18T18:09:11;0.50;69.20
19110;DHT22;9687;50.836;12.060;2022-12-18T18:11:40;0.50;69.80
19110;DHT22;9687;50.836;12.060;2022-12-18T18:14:25;0.50;69.80
19110;DHT22;9687;50.836;12.060;2022-12-18T18:16:53;0.50;69.80
19110;DHT22;9687;50.836;12.060;2022-12-18T18:19:24;0.50;69.10
19110;DHT22;9687;50.836;12.060;2022-12-18T18:21:57;0.60;69.20
19110;DHT22;9687;50.836;12.060;2022-12-18T18:24:26;0.60;69.10
19110;DHT22;9687;50.836;12.060;2022-12-18T18:26:54;0.60;69.60
19110;DHT22;9687;50.836;12.060;2022-12-18T18:29:25;0.60;69.40
19110;DHT22;9687;50.836;12.060;2022-12-18T18:31:53;0.60;69.30
19110;DHT22;9687;50.836;12.060;2022-12-18T18:34:22;1.30;69.70
19110;DHT22;9687;50.836;12.060;2022-12-18T18:36:50;0.60;69.00
19110;DHT22;9687;50.836;12.060;2022-12-18T18:39:18;0.60;68.50
19110;DHT22;9687;50.836;12.060;2022-12-18T18:41:47;0.60;68.70
19110;DHT22;9687;50.836;12.060;2022-12-18T18:44:16;0.60;68.70
19110;DHT22;9687;50.836;12.060;2022-12-18T18:46:43;0.60;68.10
19110;DHT22;9687;50.836;12.060;2022-12-18T18:49:11;0.70;68.70
19110;DHT22;9687;50.836;12.060;2022-12-18T18:51:40;0.70;68.70
19110;DHT22;9687;50.836;12.060;2022-12-18T18:54:07;0.70;68.10
19110;DHT22;9687;50.836;12.060;2022-12-18T18:56:35;0.70;68.50
19110;DHT22;9687;50.836;12.060;2022-12-18T18:59:04;0.70;68.40
19110;DHT22;9687;50.836;12.060;2022-12-18T19:01:31;0.70;68.50
19110;DHT22;9687;50.836;12.060;2022-12-18T19:04:02;0.70;68.60
19110;DHT22;9687;50.836;12.060;2022-12-18T19:06:30;0.70;68.60
19110;DHT22;9687;50.836;12.060;2022-12-18T19:09:01;0.70;67.80
19110;DHT22;9687;50.836;12.060;2022-12-18T19:11:30;0.60;68.40
19110;DHT22;9687;50.836;12.060;2022-12-18T19:14:16;0.60;67.80
19110;DHT22;9687;50.836;12.060;2022-12-18T19:16:47;0.60;68.40
19110;DHT22;9687;50.836;12.060;2022-12-18T19:19:17;0.60;68.40
19110;DHT22;9687;50.836;12.060;2022-12-18T19:21:45;0.60;68.50
19110;DHT22;9687;50.836;12.060;2022-12-18T19:24:13;0.60;68.30
19110;DHT22;9687;50.836;12.060;2022-12-18T19:26:40;0.60;68.20
19110;DHT22;9687;50.836;12.060;2022-12-18T19:29:10;0.70;68.30
19110;DHT22;9687;50.836;12.060;2022-12-18T19:31:41;0.70;68.30
19110;DHT22;9687;50.836;12.060;2022-12-18T19:34:10;0.70;67.90
19110;DHT22;9687;50.836;12.060;2022-12-18T19:36:39;0.70;67.80
19110;DHT22;9687;50.836;12.060;2022-12-18T19:39:09;0.70;67.40
19110;DHT22;9687;50.836;12.060;2022-12-18T19:41:37;0.70;67.30
19110;DHT22;9687;50.836;12.060;2022-12-18T19:44:04;0.70;66.60
19110;DHT22;9687;50.836;12.060;2022-12-18T19:46:32;0.70;67.30
19110;DHT22;9687;50.836;12.060;2022-12-18T19:49:02;0.70;66.90
19110;DHT22;9687;50.836;12.060;2022-12-18T19:51:30;0.70;66.70
19110;DHT22;9687;50.836;12.060;2022-12-18T19:53:59;0.70;65.90
19110;DHT22;9687;50.836;12.060;2022-12-18T19:56:30;0.70;65.90
19110;DHT22;9687;50.836;12.060;2022-12-18T19:58:58;0.70;66.00
19110;DHT22;9687;50.836;12.060;2022-12-18T20:01:27;0.70;66.10
19110;DHT22;9687;50.836;12.060;2022-12-18T20:03:55;0.70;66.30
19110;DHT22;9687;50.836;12.060;2022-12-18T20:06:26;0.70;65.40
19110;DHT22;9687;50.836;12.060;2022-12-18T20:08:57;0.70;65.00
19110;DHT22;9687;50.836;12.060;2022-12-18T20:13:54;0.80;64.50
19110;DHT22;9687;50.836;12.060;2022-12-18T21:15:33;0.80;64.20
19110;DHT22;9687;50.836;12.060;2022-12-18T21:18:01;0.90;64.10
19110;DHT22;9687;50.836;12.060;2022-12-18T21:20:29;0.90;64.00
19110;DHT22;9687;50.836;12.060;2022-12-18T21:22:57;0.90;64.00
19110;DHT22;9687;50.836;12.060;2022-12-18T21:25:27;0.80;64.20
19110;DHT22;9687;50.836;12.060;2022-12-18T21:27:55;0.90;64.20
19110;DHT22;9687;50.836;12.060;2022-12-18T21:30:22;0.90;63.30
19110;DHT22;9687;50.836;12.060;2022-12-18T21:32:51;0.90;64.10
19110;DHT22;9687;50.836;12.060;2022-12-18T21:35:19;0.90;63.00
19110;DHT22;9687;50.836;12.060;2022-12-18T21:37:46;1.00;63.80
19110;DHT22;9687;50.836;12.060;2022-12-18T21:40:14;0.90;63.60
19110;DHT22;9687;50.836;12.060;2022-12-18T21:42:41;0.90;63.50
19110;DHT22;9687;50.836;12.060;2022-12-18T21:45:26;0.90;64.00
19110;DHT22;9687;50.836;12.060;2022-12-18T21:47:55;0.90;64.00
19110;DHT22;9687;50.836;12.060;2022-12-18T21:50:24;0.90;63.70
19110;DHT22;9687;50.836;12.060;2022-12-18T21:52:51;0.80;63.60
19110;DHT22;9687;50.836;12.060;2022-12-18T21:55:19;0.80;64.30
19110;DHT22;9687;50.836;12.060;2022-12-18T21:57:46;0.80;64.20
19110;DHT22;9687;50.836;12.060;2022-12-18T22:00:16;0.80;64.10
19110;DHT22;9687;50.836;12.060;2022-12-18T22:02:46;0.90;64.30
19110;DHT22;9687;50.836;12.060;2022-12-18T22:05:16;0.90;64.40
19110;DHT22;9687;50.836;12.060;2022-12-18T22:07:43;0.90;65.30
19110;DHT22;9687;50.836;12.060;2022-12-18T22:10:10;0.90;64.40
19110;DHT22;9687;50.836;12.060;2022-12-18T22:12:40;0.90;64.50
19110;DHT22;9687;50.836;12.060;2022-12-18T22:15:09;0.90;64.40
